sensor_id;sensor_type;location;lat;lon;timestamp;temperature;humidity
16523;DHT22;19889;52.546;13.348;2024-03-22T00:01:27;10.20;99.90
16523;DHT22;19889;52.546;13.348;2024-03-22T00:03:53;10.20;99.90
16523;DHT22;19889;52.546;13.348;2024-03-22T00:06:21;10.20;99.90
16523;DHT22;19889;52.546;13.348;2024-03-22T00:08:47;10.10;99.90
16523;DHT22;19889;52.546;13.348;2024-03-22T00:11:14;10.10;99.90
16523;DHT22;19889;52.546;13.348;2024-03-22T00:13:40;10.10;99.90
16523;DHT22;19889;52.546;13.348;2024-03-22T00:16:07;10.10;99.90
16523;DHT22;19889;52.546;13.348;2024-03-22T00:18:33;10.10;99.90
16523;DHT22;19889;52.546;13.348;2024-03-22T00:21:00;10.10;99.90
16523;DHT22;19889;52.546;13.348;2024-03-22T00:23:29;10.10;99.90
16523;DHT22;19889;52.546;13.348;2024-03-22T00:25:56;10.10;99.90
16523;DHT22;19889;52.546;13.348;2024-03-22T00:28:22;10.20;99.90
16523;DHT22;19889;52.546;13.348;2024-03-22T00:30:50;10.20;99.90
16523;DHT22;19889;52.546;13.348;2024-03-22T00:33:16;10.20;99.90
16523;DHT22;19889;52.546;13.348;2024-03-22T00:35:43;10.20;99.90
16523;DHT22;19889;52.546;13.348;2024-03-22T00:38:09;10.10;99.90
16523;DHT22;19889;52.546;13.348;2024-03-22T00:40:38;10.10;99.90
16523;DHT22;19889;52.546;13.348;2024-03-22T00:43:04;10.10;99.90
16523;DHT22;19889;52.546;13.348;2024-03-22T00:45:31;10.00;99.90
16523;DHT22;19889;52.546;13.348;2024-03-22T00:47:57;10.00;99.90
16523;DHT22;19889;52.546;13.348;2024-03-22T00:50:24;10.00;99.90
16523;DHT22;19889;52.546;13.348;2024-03-22T00:52:50;10.00;99.90
16523;DHT22;19889;52.546;13.348;2024-03-22T00:55:18;10.00;99.90
16523;DHT22;19889;52.546;13.348;2024-03-22T00:57:45;10.00;99.90
16523;DHT22;19889;52.546;13.348;2024-03-22T01:00:13;10.00;99.90
16523;DHT22;19889;52.546;13.348;2024-03-22T01:02:40;10.00;99.90
16523;DHT22;19889;52.546;13.348;2024-03-22T01:05:07;10.00;99.90
16523;DHT22;19889;52.546;13.348;2024-03-22T01:07:33;10.10;99.90
16523;DHT22;19889;52.546;13.348;2024-03-22T01:10:01;10.10;99.90
16523;DHT22;19889;52.546;13.348;2024-03-22T01:12:26;10.10;99.90
16523;DHT22;19889;52.546;13.348;2024-03-22T01:14:55;10.20;99.90
16523;DHT22;19889;52.546;13.348;2024-03-22T01:17:21;10.10;99.90
16523;DHT22;19889;52.546;13.348;2024-03-22T01:19:48;10.10;99.90
16523;DHT22;19889;52.546;13.348;2024-03-22T01:22:14;10.00;99.90
16523;DHT22;19889;52.546;13.348;2024-03-22T01:24:41;10.00;99.90
16523;DHT22;19889;52.546;13.348;2024-03-22T01:27:07;10.00;99.90
16523;DHT22;19889;52.546;13.348;2024-03-22T01:29:34;9.90;99.90
16523;DHT22;19889;52.546;13.348;2024-03-22T01:32:03;9.90;99.90
16523;DHT22;19889;52.546;13.348;2024-03-22T01:34:30;9.90;99.90
16523;DHT22;19889;52.546;13.348;2024-03-22T01:36:56;9.90;99.90
16523;DHT22;19889;52.546;13.348;2024-03-22T01:39:23;9.90;99.90
16523;DHT22;19889;52.546;13.348;2024-03-22T01:41:49;9.90;99.90
16523;DHT22;19889;52.546;13.348;2024-03-22T01:44:17;9.80;99.90
16523;DHT22;19889;52.546;13.348;2024-03-22T01:46:44;9.80;99.90
16523;DHT22;19889;52.546;13.348;2024-03-22T01:49:14;9.80;99.90
16523;DHT22;19889;52.546;13.348;2024-03-22T01:51:42;9.80;99.90
16523;DHT22;19889;52.546;13.348;2024-03-22T01:54:09;9.80;99.90
16523;DHT22;19889;52.546;13.348;2024-03-22T01:56:36;9.80;99.90
16523;DHT22;19889;52.546;13.348;2024-03-22T01:59:04;9.70;99.90
16523;DHT22;19889;52.546;13.348;2024-03-22T02:01:31;9.70;99.90
16523;DHT22;19889;52.546;13.348;2024-03-22T02:03:58;9.70;99.90
16523;DHT22;19889;52.546;13.348;2024-03-22T02:06:25;9.70;99.90
16523;DHT22;19889;52.546;13.348;2024-03-22T02:08:52;9.70;99.90
16523;DHT22;19889;52.546;13.348;2024-03-22T02:11:18;9.70;99.90
16523;DHT22;19889;52.546;13.348;2024-03-22T02:13:45;9.70;99.90
16523;DHT22;19889;52.546;13.348;2024-03-22T02:16:11;9.70;99.90
16523;DHT22;19889;52.546;13.348;2024-03-22T02:18:39;9.70;99.90
16523;DHT22;19889;52.546;13.348;2024-03-22T02:21:05;9.80;99.90
16523;DHT22;19889;52.546;13.348;2024-03-22T02:23:34;9.80;99.90
16523;DHT22;19889;52.546;13.348;2024-03-22T02:26:00;9.90;99.90
16523;DHT22;19889;52.546;13.348;2024-03-22T02:28:27;9.90;99.90
16523;DHT22;19889;52.546;13.348;2024-03-22T02:30:54;9.90;99.90
16523;DHT22;19889;52.546;13.348;2024-03-22T02:33:21;9.90;99.90
16523;DHT22;19889;52.546;13.348;2024-03-22T02:35:47;9.90;99.90
16523;DHT22;19889;52.546;13.348;2024-03-22T02:38:14;9.90;99.90
16523;DHT22;19889;52.546;13.348;2024-03-22T02:40:43;9.90;99.90
16523;DHT22;19889;52.546;13.348;2024-03-22T02:43:10;9.90;99.90
16523;DHT22;19889;52.546;13.348;2024-03-22T02:45:36;9.80;99.90
16523;DHT22;19889;52.546;13.348;2024-03-22T02:48:04;9.80;99.90
16523;DHT22;19889;52.546;13.348;2024-03-22T02:50:32;9.80;99.90
16523;DHT22;19889;52.546;13.348;2024-03-22T02:53:00;9.90;99.90
16523;DHT22;19889;52.546;13.348;2024-03-22T02:55:26;9.80;99.90
16523;DHT22;19889;52.546;13.348;2024-03-22T02:57:55;9.80;99.90
16523;DHT22;19889;52.546;13.348;2024-03-22T03:00:21;9.80;99.90
16523;DHT22;19889;52.546;13.348;2024-03-22T03:02:48;9.80;99.90
16523;DHT22;19889;52.546;13.348;2024-03-22T03:05:14;9.80;99.90
16523;DHT22;19889;52.546;13.348;2024-03-22T03:07:41;9.80;99.90
16523;DHT22;19889;52.546;13.348;2024-03-22T03:10:07;9.70;99.90
16523;DHT22;19889;52.546;13.348;2024-03-22T03:12:35;9.70;99.90
16523;DHT22;19889;52.546;13.348;2024-03-22T03:15:03;9.70;99.90
16523;DHT22;19889;52.546;13.348;2024-03-22T03:17:30;9.70;99.90
16523;DHT22;19889;52.546;13.348;2024-03-22T03:19:56;9.70;99.90
16523;DHT22;19889;52.546;13.348;2024-03-22T03:22:23;9.70;99.90
16523;DHT22;19889;52.546;13.348;2024-03-22T03:24:49;9.70;99.90
16523;DHT22;19889;52.546;13.348;2024-03-22T03:27:16;9.60;99.90
16523;DHT22;19889;52.546;13.348;2024-03-22T03:29:42;9.60;99.90
16523;DHT22;19889;52.546;13.348;2024-03-22T03:32:10;9.60;99.90
16523;DHT22;19889;52.546;13.348;2024-03-22T03:34:36;9.60;99.90
16523;DHT22;19889;52.546;13.348;2024-03-22T03:37:03;9.60;99.90
16523;DHT22;19889;52.546;13.348;2024-03-22T03:39:29;9.60;99.90
16523;DHT22;19889;52.546;13.348;2024-03-22T03:41:56;9.60;99.90
16523;DHT22;19889;52.546;13.348;2024-03-22T03:44:22;9.60;99.90
16523;DHT22;19889;52.546;13.348;2024-03-22T03:46:49;9.60;99.90
16523;DHT22;19889;52.546;13.348;2024-03-22T03:49:16;9.60;99.90
16523;DHT22;19889;52.546;13.348;2024-03-22T03:51:43;9.70;99.90
16523;DHT22;19889;52.546;13.348;2024-03-22T03:54:09;9.70;99.90
16523;DHT22;19889;52.546;13.348;2024-03-22T03:56:36;9.60;99.90
16523;DHT22;19889;52.546;13.348;2024-03-22T03:59:02;9.60;99.90
16523;DHT22;19889;52.546;13.348;2024-03-22T04:01:29;9.60;99.90
16523;DHT22;19889;52.546;13.348;2024-03-22T04:03:55;9.60;99.90
16523;DHT22;19889;52.546;13.348;2024-03-22T04:06:24;9.60;99.90
16523;DHT22;19889;52.546;13.348;2024-03-22T04:08:49;9.60;99.90
16523;DHT22;19889;52.546;13.348;2024-03-22T04:11:16;9.60;99.90
16523;DHT22;19889;52.546;13.348;2024-03-22T04:13:43;9.60;99.90
16523;DHT22;19889;52.546;13.348;2024-03-22T04:16:10;9.60;99.90
16523;DHT22;19889;52.546;13.348;2024-03-22T04:18:36;9.60;99.90
16523;DHT22;19889;52.546;13.348;2024-03-22T04:21:03;9.60;99.90
16523;DHT22;19889;52.546;13.348;2024-03-22T04:23:30;9.60;99.90
16523;DHT22;19889;52.546;13.348;2024-03-22T04:25:59;9.70;99.90
16523;DHT22;19889;52.546;13.348;2024-03-22T04:28:25;9.70;99.90
16523;DHT22;19889;52.546;13.348;2024-03-22T04:30:59;9.60;99.90
16523;DHT22;19889;52.546;13.348;2024-03-22T04:33:26;9.70;99.90
16523;DHT22;19889;52.546;13.348;2024-03-22T04:35:53;9.70;99.90
16523;DHT22;19889;52.546;13.348;2024-03-22T04:38:19;9.60;99.90
16523;DHT22;19889;52.546;13.348;2024-03-22T04:40:48;9.60;99.90
16523;DHT22;19889;52.546;13.348;2024-03-22T04:43:15;9.70;99.90
16523;DHT22;19889;52.546;13.348;2024-03-22T04:45:42;9.70;99.90
16523;DHT22;19889;52.546;13.348;2024-03-22T04:48:09;9.70;99.90
16523;DHT22;19889;52.546;13.348;2024-03-22T04:50:35;9.70;99.90
16523;DHT22;19889;52.546;13.348;2024-03-22T04:53:02;9.70;99.90
16523;DHT22;19889;52.546;13.348;2024-03-22T04:55:28;9.70;99.90
16523;DHT22;19889;52.546;13.348;2024-03-22T04:57:57;9.70;99.90
16523;DHT22;19889;52.546;13.348;2024-03-22T05:00:23;9.70;99.90
16523;DHT22;19889;52.546;13.348;2024-03-22T05:02:50;9.70;99.90
16523;DHT22;19889;52.546;13.348;2024-03-22T05:05:16;9.70;99.90
16523;DHT22;19889;52.546;13.348;2024-03-22T05:07:43;9.80;99.90
16523;DHT22;19889;52.546;13.348;2024-03-22T05:10:09;9.70;99.90
16523;DHT22;19889;52.546;13.348;2024-03-22T05:12:36;9.70;99.90
16523;DHT22;19889;52.546;13.348;2024-03-22T05:15:05;9.70;99.90
16523;DHT22;19889;52.546;13.348;2024-03-22T05:17:32;9.70;99.90
16523;DHT22;19889;52.546;13.348;2024-03-22T05:19:59;9.80;99.90
16523;DHT22;19889;52.546;13.348;2024-03-22T05:22:27;9.80;99.90
16523;DHT22;19889;52.546;13.348;2024-03-22T05:24:53;9.80;99.90
16523;DHT22;19889;52.546;13.348;2024-03-22T05:27:20;9.90;99.90
16523;DHT22;19889;52.546;13.348;2024-03-22T05:29:46;9.80;99.90
16523;DHT22;19889;52.546;13.348;2024-03-22T05:32:15;9.80;99.90
16523;DHT22;19889;52.546;13.348;2024-03-22T05:34:41;9.90;99.90
16523;DHT22;19889;52.546;13.348;2024-03-22T05:37:08;9.80;99.90
16523;DHT22;19889;52.546;13.348;2024-03-22T05:39:34;9.80;99.90
16523;DHT22;19889;52.546;13.348;2024-03-22T05:42:01;9.90;99.90
16523;DHT22;19889;52.546;13.348;2024-03-22T05:44:27;9.80;99.90
16523;DHT22;19889;52.546;13.348;2024-03-22T05:46:54;9.90;99.90
16523;DHT22;19889;52.546;13.348;2024-03-22T05:49:23;9.90;99.90
16523;DHT22;19889;52.546;13.348;2024-03-22T05:51:50;9.90;99.90
16523;DHT22;19889;52.546;13.348;2024-03-22T05:54:16;9.90;99.90
16523;DHT22;19889;52.546;13.348;2024-03-22T05:56:43;10.10;99.90
16523;DHT22;19889;52.546;13.348;2024-03-22T05:59:09;10.00;99.90
16523;DHT22;19889;52.546;13.348;2024-03-22T06:01:36;10.00;99.90
16523;DHT22;19889;52.546;13.348;2024-03-22T06:04:04;10.00;99.90
16523;DHT22;19889;52.546;13.348;2024-03-22T06:06:32;10.10;99.90
16523;DHT22;19889;52.546;13.348;2024-03-22T06:08:58;10.10;99.90
16523;DHT22;19889;52.546;13.348;2024-03-22T06:11:29;10.20;99.90
16523;DHT22;19889;52.546;13.348;2024-03-22T06:13:55;10.20;99.90
16523;DHT22;19889;52.546;13.348;2024-03-22T06:16:22;10.20;99.90
16523;DHT22;19889;52.546;13.348;2024-03-22T06:18:48;10.30;99.90
16523;DHT22;19889;52.546;13.348;2024-03-22T06:21:15;10.30;99.90
16523;DHT22;19889;52.546;13.348;2024-03-22T06:23:49;10.30;99.90
16523;DHT22;19889;52.546;13.348;2024-03-22T06:26:16;10.30;99.90
16523;DHT22;19889;52.546;13.348;2024-03-22T06:28:42;10.30;99.90
16523;DHT22;19889;52.546;13.348;2024-03-22T06:31:09;10.30;99.90
16523;DHT22;19889;52.546;13.348;2024-03-22T06:33:35;10.30;99.90
16523;DHT22;19889;52.546;13.348;2024-03-22T06:36:03;10.30;99.90
16523;DHT22;19889;52.546;13.348;2024-03-22T06:38:29;10.20;99.90
16523;DHT22;19889;52.546;13.348;2024-03-22T06:40:57;10.30;99.90
16523;DHT22;19889;52.546;13.348;2024-03-22T06:43:24;10.30;99.90
16523;DHT22;19889;52.546;13.348;2024-03-22T06:45:51;10.30;99.90
16523;DHT22;19889;52.546;13.348;2024-03-22T06:48:17;10.30;99.90
16523;DHT22;19889;52.546;13.348;2024-03-22T06:50:45;10.30;99.90
16523;DHT22;19889;52.546;13.348;2024-03-22T06:53:11;10.40;99.90
16523;DHT22;19889;52.546;13.348;2024-03-22T06:55:38;10.40;99.90
16523;DHT22;19889;52.546;13.348;2024-03-22T06:58:06;10.40;99.90
16523;DHT22;19889;52.546;13.348;2024-03-22T07:00:33;10.40;99.90
16523;DHT22;19889;52.546;13.348;2024-03-22T07:03:01;10.40;99.90
16523;DHT22;19889;52.546;13.348;2024-03-22T07:05:29;10.50;99.90
16523;DHT22;19889;52.546;13.348;2024-03-22T07:07:56;10.50;99.90
16523;DHT22;19889;52.546;13.348;2024-03-22T07:10:23;10.60;99.90
16523;DHT22;19889;52.546;13.348;2024-03-22T07:12:53;10.60;99.90
16523;DHT22;19889;52.546;13.348;2024-03-22T07:15:23;10.70;99.90
16523;DHT22;19889;52.546;13.348;2024-03-22T07:17:50;10.70;99.90
16523;DHT22;19889;52.546;13.348;2024-03-22T07:20:18;10.80;99.90
16523;DHT22;19889;52.546;13.348;2024-03-22T07:22:44;10.80;99.90
16523;DHT22;19889;52.546;13.348;2024-03-22T07:25:11;10.70;99.90
16523;DHT22;19889;52.546;13.348;2024-03-22T07:27:37;10.80;99.90
16523;DHT22;19889;52.546;13.348;2024-03-22T07:30:06;10.80;99.90
16523;DHT22;19889;52.546;13.348;2024-03-22T07:32:33;10.80;99.90
16523;DHT22;19889;52.546;13.348;2024-03-22T07:35:01;10.80;99.90
16523;DHT22;19889;52.546;13.348;2024-03-22T07:37:27;10.80;99.90
16523;DHT22;19889;52.546;13.348;2024-03-22T07:39:54;10.80;99.90
16523;DHT22;19889;52.546;13.348;2024-03-22T07:42:20;10.90;99.90
16523;DHT22;19889;52.546;13.348;2024-03-22T07:44:47;10.90;99.90
16523;DHT22;19889;52.546;13.348;2024-03-22T07:47:13;11.00;99.90
16523;DHT22;19889;52.546;13.348;2024-03-22T07:49:42;11.00;99.90
16523;DHT22;19889;52.546;13.348;2024-03-22T07:52:09;11.00;99.90
16523;DHT22;19889;52.546;13.348;2024-03-22T07:54:36;11.00;99.90
16523;DHT22;19889;52.546;13.348;2024-03-22T07:57:02;11.00;99.90
16523;DHT22;19889;52.546;13.348;2024-03-22T07:59:29;11.00;99.90
16523;DHT22;19889;52.546;13.348;2024-03-22T08:01:55;11.00;99.90
16523;DHT22;19889;52.546;13.348;2024-03-22T08:04:23;11.00;99.90
16523;DHT22;19889;52.546;13.348;2024-03-22T08:06:52;11.10;99.90
16523;DHT22;19889;52.546;13.348;2024-03-22T08:09:19;11.10;99.90
16523;DHT22;19889;52.546;13.348;2024-03-22T08:11:45;11.20;99.90
16523;DHT22;19889;52.546;13.348;2024-03-22T08:14:13;11.20;99.90
16523;DHT22;19889;52.546;13.348;2024-03-22T08:16:39;11.20;99.90
16523;DHT22;19889;52.546;13.348;2024-03-22T08:19:07;11.20;99.90
16523;DHT22;19889;52.546;13.348;2024-03-22T08:21:34;11.30;99.90
16523;DHT22;19889;52.546;13.348;2024-03-22T08:24:01;11.30;99.90
16523;DHT22;19889;52.546;13.348;2024-03-22T08:26:29;11.40;99.90
16523;DHT22;19889;52.546;13.348;2024-03-22T08:28:55;11.30;99.90
16523;DHT22;19889;52.546;13.348;2024-03-22T08:31:22;11.40;99.90
16523;DHT22;19889;52.546;13.348;2024-03-22T08:33:51;11.40;99.90
16523;DHT22;19889;52.546;13.348;2024-03-22T08:36:18;11.40;99.90
16523;DHT22;19889;52.546;13.348;2024-03-22T08:38:44;11.40;99.90
16523;DHT22;19889;52.546;13.348;2024-03-22T08:41:13;11.40;99.90
16523;DHT22;19889;52.546;13.348;2024-03-22T08:43:39;11.40;99.90
16523;DHT22;19889;52.546;13.348;2024-03-22T08:46:06;11.50;99.90
16523;DHT22;19889;52.546;13.348;2024-03-22T08:48:32;11.50;99.90
16523;DHT22;19889;52.546;13.348;2024-03-22T08:50:59;11.60;99.90
16523;DHT22;19889;52.546;13.348;2024-03-22T08:53:25;11.60;99.90
16523;DHT22;19889;52.546;13.348;2024-03-22T08:55:52;11.70;99.90
16523;DHT22;19889;52.546;13.348;2024-03-22T08:58:19;11.80;99.90
16523;DHT22;19889;52.546;13.348;2024-03-22T09:00:46;11.80;99.90
16523;DHT22;19889;52.546;13.348;2024-03-22T09:03:13;11.90;99.90
16523;DHT22;19889;52.546;13.348;2024-03-22T09:05:40;12.00;99.90
16523;DHT22;19889;52.546;13.348;2024-03-22T09:08:07;12.10;99.90
16523;DHT22;19889;52.546;13.348;2024-03-22T09:10:34;12.20;99.90
16523;DHT22;19889;52.546;13.348;2024-03-22T09:13:00;13.50;99.90
16523;DHT22;19889;52.546;13.348;2024-03-22T09:15:29;12.30;99.90
16523;DHT22;19889;52.546;13.348;2024-03-22T09:17:55;12.40;99.90
16523;DHT22;19889;52.546;13.348;2024-03-22T09:20:22;12.40;99.90
16523;DHT22;19889;52.546;13.348;2024-03-22T09:22:49;12.50;99.90
16523;DHT22;19889;52.546;13.348;2024-03-22T09:25:16;12.50;99.90
16523;DHT22;19889;52.546;13.348;2024-03-22T09:27:42;12.50;99.90
16523;DHT22;19889;52.546;13.348;2024-03-22T09:30:10;13.00;99.90
16523;DHT22;19889;52.546;13.348;2024-03-22T09:32:37;12.60;99.90
16523;DHT22;19889;52.546;13.348;2024-03-22T09:35:06;12.60;99.90
16523;DHT22;19889;52.546;13.348;2024-03-22T09:37:32;12.70;99.90
16523;DHT22;19889;52.546;13.348;2024-03-22T09:39:59;12.70;99.90
16523;DHT22;19889;52.546;13.348;2024-03-22T09:42:26;12.70;99.90
16523;DHT22;19889;52.546;13.348;2024-03-22T09:44:55;12.80;99.90
16523;DHT22;19889;52.546;13.348;2024-03-22T09:47:21;12.80;99.90
16523;DHT22;19889;52.546;13.348;2024-03-22T09:49:52;12.70;99.90
16523;DHT22;19889;52.546;13.348;2024-03-22T09:52:20;12.70;99.90
16523;DHT22;19889;52.546;13.348;2024-03-22T09:54:47;12.70;99.90
16523;DHT22;19889;52.546;13.348;2024-03-22T09:57:18;12.80;99.90
16523;DHT22;19889;52.546;13.348;2024-03-22T09:59:45;12.70;99.90
16523;DHT22;19889;52.546;13.348;2024-03-22T10:02:12;12.80;99.90
16523;DHT22;19889;52.546;13.348;2024-03-22T10:04:40;12.80;99.90
16523;DHT22;19889;52.546;13.348;2024-03-22T10:07:08;12.80;99.90
16523;DHT22;19889;52.546;13.348;2024-03-22T10:09:36;12.80;99.90
16523;DHT22;19889;52.546;13.348;2024-03-22T10:12:02;12.90;99.90
16523;DHT22;19889;52.546;13.348;2024-03-22T10:14:30;13.00;99.90
16523;DHT22;19889;52.546;13.348;2024-03-22T10:16:57;13.00;99.90
16523;DHT22;19889;52.546;13.348;2024-03-22T10:19:24;13.10;99.90
16523;DHT22;19889;52.546;13.348;2024-03-22T10:22:00;13.10;99.90
16523;DHT22;19889;52.546;13.348;2024-03-22T10:24:29;13.10;99.90
16523;DHT22;19889;52.546;13.348;2024-03-22T10:26:55;13.10;99.90
16523;DHT22;19889;52.546;13.348;2024-03-22T10:29:22;13.20;99.90
16523;DHT22;19889;52.546;13.348;2024-03-22T10:31:50;13.20;99.90
16523;DHT22;19889;52.546;13.348;2024-03-22T10:34:18;13.30;99.90
16523;DHT22;19889;52.546;13.348;2024-03-22T10:36:48;13.30;99.90
16523;DHT22;19889;52.546;13.348;2024-03-22T10:39:17;13.40;99.90
16523;DHT22;19889;52.546;13.348;2024-03-22T10:41:45;13.50;99.90
16523;DHT22;19889;52.546;13.348;2024-03-22T10:44:12;13.60;99.90
16523;DHT22;19889;52.546;13.348;2024-03-22T10:46:43;13.70;99.90
16523;DHT22;19889;52.546;13.348;2024-03-22T10:49:15;13.80;99.90
16523;DHT22;19889;52.546;13.348;2024-03-22T10:51:44;13.90;99.90
16523;DHT22;19889;52.546;13.348;2024-03-22T10:54:13;14.10;99.90
16523;DHT22;19889;52.546;13.348;2024-03-22T10:56:45;14.10;99.90
16523;DHT22;19889;52.546;13.348;2024-03-22T10:59:14;14.20;99.90
16523;DHT22;19889;52.546;13.348;2024-03-22T11:01:45;14.20;99.90
16523;DHT22;19889;52.546;13.348;2024-03-22T11:04:14;14.20;99.90
16523;DHT22;19889;52.546;13.348;2024-03-22T11:06:40;14.10;99.90
16523;DHT22;19889;52.546;13.348;2024-03-22T11:09:09;14.10;99.90
16523;DHT22;19889;52.546;13.348;2024-03-22T11:11:36;14.20;99.90
16523;DHT22;19889;52.546;13.348;2024-03-22T11:14:05;14.30;99.90
16523;DHT22;19889;52.546;13.348;2024-03-22T11:16:31;14.20;99.90
16523;DHT22;19889;52.546;13.348;2024-03-22T11:18:59;14.10;99.90
16523;DHT22;19889;52.546;13.348;2024-03-22T11:21:25;14.00;99.90
16523;DHT22;19889;52.546;13.348;2024-03-22T11:23:52;13.90;99.90
16523;DHT22;19889;52.546;13.348;2024-03-22T11:26:19;13.80;99.90
16523;DHT22;19889;52.546;13.348;2024-03-22T11:28:46;13.70;99.90
16523;DHT22;19889;52.546;13.348;2024-03-22T11:31:14;13.60;99.90
16523;DHT22;19889;52.546;13.348;2024-03-22T11:33:41;13.60;99.90
16523;DHT22;19889;52.546;13.348;2024-03-22T11:36:07;13.60;99.90
16523;DHT22;19889;52.546;13.348;2024-03-22T11:38:35;13.60;99.90
16523;DHT22;19889;52.546;13.348;2024-03-22T11:41:03;13.60;99.90
16523;DHT22;19889;52.546;13.348;2024-03-22T11:43:31;13.60;99.90
16523;DHT22;19889;52.546;13.348;2024-03-22T11:45:57;13.60;99.90
16523;DHT22;19889;52.546;13.348;2024-03-22T11:48:28;13.60;99.90
16523;DHT22;19889;52.546;13.348;2024-03-22T11:50:54;13.50;99.90
16523;DHT22;19889;52.546;13.348;2024-03-22T11:53:24;13.60;99.90
16523;DHT22;19889;52.546;13.348;2024-03-22T11:55:50;13.60;99.90
16523;DHT22;19889;52.546;13.348;2024-03-22T11:58:19;13.60;99.90
16523;DHT22;19889;52.546;13.348;2024-03-22T12:00:45;13.60;99.90
16523;DHT22;19889;52.546;13.348;2024-03-22T12:03:14;13.60;99.90
16523;DHT22;19889;52.546;13.348;2024-03-22T12:05:42;13.70;99.90
16523;DHT22;19889;52.546;13.348;2024-03-22T12:08:09;13.60;99.90
16523;DHT22;19889;52.546;13.348;2024-03-22T12:10:35;13.70;99.90
16523;DHT22;19889;52.546;13.348;2024-03-22T12:13:02;13.70;99.90
16523;DHT22;19889;52.546;13.348;2024-03-22T12:15:28;13.60;99.90
16523;DHT22;19889;52.546;13.348;2024-03-22T12:17:55;13.60;99.90
16523;DHT22;19889;52.546;13.348;2024-03-22T12:20:21;13.60;99.90
16523;DHT22;19889;52.546;13.348;2024-03-22T12:22:50;13.50;99.90
16523;DHT22;19889;52.546;13.348;2024-03-22T12:25:16;13.50;99.90
16523;DHT22;19889;52.546;13.348;2024-03-22T12:27:43;13.40;99.90
16523;DHT22;19889;52.546;13.348;2024-03-22T12:30:11;13.40;99.90
16523;DHT22;19889;52.546;13.348;2024-03-22T12:32:38;13.40;99.90
16523;DHT22;19889;52.546;13.348;2024-03-22T12:35:05;13.30;99.90
16523;DHT22;19889;52.546;13.348;2024-03-22T12:37:34;13.30;99.90
16523;DHT22;19889;52.546;13.348;2024-03-22T12:40:03;13.20;99.90
16523;DHT22;19889;52.546;13.348;2024-03-22T12:42:30;13.20;99.90
16523;DHT22;19889;52.546;13.348;2024-03-22T12:44:57;13.20;99.90
16523;DHT22;19889;52.546;13.348;2024-03-22T12:47:24;13.20;99.90
16523;DHT22;19889;52.546;13.348;2024-03-22T12:49:50;13.20;99.90
16523;DHT22;19889;52.546;13.348;2024-03-22T12:52:17;13.10;99.90
16523;DHT22;19889;52.546;13.348;2024-03-22T12:54:43;13.10;99.90
16523;DHT22;19889;52.546;13.348;2024-03-22T12:57:12;13.00;99.90
16523;DHT22;19889;52.546;13.348;2024-03-22T12:59:38;13.00;99.90
16523;DHT22;19889;52.546;13.348;2024-03-22T13:02:05;15.00;99.90
16523;DHT22;19889;52.546;13.348;2024-03-22T13:04:31;13.00;99.90
16523;DHT22;19889;52.546;13.348;2024-03-22T13:06:59;12.90;99.90
16523;DHT22;19889;52.546;13.348;2024-03-22T13:09:25;12.90;99.90
16523;DHT22;19889;52.546;13.348;2024-03-22T13:11:52;12.80;99.90
16523;DHT22;19889;52.546;13.348;2024-03-22T13:14:20;12.80;99.90
16523;DHT22;19889;52.546;13.348;2024-03-22T13:16:47;12.80;99.90
16523;DHT22;19889;52.546;13.348;2024-03-22T13:19:13;12.70;99.90
16523;DHT22;19889;52.546;13.348;2024-03-22T13:21:41;12.70;99.90
16523;DHT22;19889;52.546;13.348;2024-03-22T13:24:07;12.70;99.90
16523;DHT22;19889;52.546;13.348;2024-03-22T13:26:34;12.70;99.90
16523;DHT22;19889;52.546;13.348;2024-03-22T13:29:00;12.70;99.90
16523;DHT22;19889;52.546;13.348;2024-03-22T13:31:29;12.70;99.90
16523;DHT22;19889;52.546;13.348;2024-03-22T13:33:55;12.70;99.90
16523;DHT22;19889;52.546;13.348;2024-03-22T13:36:22;12.70;99.90
16523;DHT22;19889;52.546;13.348;2024-03-22T13:38:49;12.70;99.90
16523;DHT22;19889;52.546;13.348;2024-03-22T13:41:16;12.70;99.90
16523;DHT22;19889;52.546;13.348;2024-03-22T13:43:42;12.70;99.90
16523;DHT22;19889;52.546;13.348;2024-03-22T13:46:10;12.70;99.90
16523;DHT22;19889;52.546;13.348;2024-03-22T13:48:42;12.80;99.90
16523;DHT22;19889;52.546;13.348;2024-03-22T13:51:09;12.80;99.90
16523;DHT22;19889;52.546;13.348;2024-03-22T13:53:36;12.50;99.90
16523;DHT22;19889;52.546;13.348;2024-03-22T13:56:04;12.70;99.90
16523;DHT22;19889;52.546;13.348;2024-03-22T13:58:30;12.80;99.90
16523;DHT22;19889;52.546;13.348;2024-03-22T14:00:57;12.80;99.90
16523;DHT22;19889;52.546;13.348;2024-03-22T14:03:23;12.80;99.90
16523;DHT22;19889;52.546;13.348;2024-03-22T14:05:52;12.80;99.90
16523;DHT22;19889;52.546;13.348;2024-03-22T14:08:18;12.90;99.90
16523;DHT22;19889;52.546;13.348;2024-03-22T14:10:45;12.80;99.90
16523;DHT22;19889;52.546;13.348;2024-03-22T14:13:12;12.80;99.90
16523;DHT22;19889;52.546;13.348;2024-03-22T14:15:39;12.80;99.90
16523;DHT22;19889;52.546;13.348;2024-03-22T14:18:05;12.80;99.90
16523;DHT22;19889;52.546;13.348;2024-03-22T14:20:32;12.80;99.90
16523;DHT22;19889;52.546;13.348;2024-03-22T14:23:00;12.80;99.90
16523;DHT22;19889;52.546;13.348;2024-03-22T14:25:27;12.90;99.90
16523;DHT22;19889;52.546;13.348;2024-03-22T14:27:53;12.90;99.90
16523;DHT22;19889;52.546;13.348;2024-03-22T14:30:20;12.90;99.90
16523;DHT22;19889;52.546;13.348;2024-03-22T14:32:46;12.80;99.90
16523;DHT22;19889;52.546;13.348;2024-03-22T14:35:14;12.90;99.90
16523;DHT22;19889;52.546;13.348;2024-03-22T14:37:40;12.90;99.90
16523;DHT22;19889;52.546;13.348;2024-03-22T14:40:09;12.90;99.90
16523;DHT22;19889;52.546;13.348;2024-03-22T14:42:36;12.90;99.90
16523;DHT22;19889;52.546;13.348;2024-03-22T14:45:04;12.80;99.90
16523;DHT22;19889;52.546;13.348;2024-03-22T14:47:30;12.80;99.90
16523;DHT22;19889;52.546;13.348;2024-03-22T14:49:57;12.80;99.90
16523;DHT22;19889;52.546;13.348;2024-03-22T14:52:24;12.80;99.90
16523;DHT22;19889;52.546;13.348;2024-03-22T14:54:51;12.80;99.90
16523;DHT22;19889;52.546;13.348;2024-03-22T14:57:19;12.80;99.90
16523;DHT22;19889;52.546;13.348;2024-03-22T14:59:46;12.80;99.90
16523;DHT22;19889;52.546;13.348;2024-03-22T15:02:13;12.80;99.90
16523;DHT22;19889;52.546;13.348;2024-03-22T15:04:41;12.80;99.90
16523;DHT22;19889;52.546;13.348;2024-03-22T15:07:08;12.80;99.90
16523;DHT22;19889;52.546;13.348;2024-03-22T15:09:35;12.70;99.90
16523;DHT22;19889;52.546;13.348;2024-03-22T15:12:01;12.70;99.90
16523;DHT22;19889;52.546;13.348;2024-03-22T15:14:29;12.70;99.90
16523;DHT22;19889;52.546;13.348;2024-03-22T15:16:56;12.70;99.90
16523;DHT22;19889;52.546;13.348;2024-03-22T15:19:23;12.70;99.90